Terminal Aerodrome Forecast
Issued by NWS

Home | Current Version | Previous Version | Graphics & Text | Print | Product List | Glossary On
Versions: 1 2 3 4 5 6 7 8 9 10 11 12 13 14 15 16
164
FTUS43 KICT 261720
TAFCNU
TAF
KCNU 261720Z 2618/2718 33013G21KT P6SM -RA OVC015
     FM262000 33012G18KT P6SM OVC025
     FM270000 33006KT P6SM OVC050
     FM270500 30004KT P6SM SCT250
     FM271400 19004KT P6SM SKC=

USA.gov is the U.S. government's official web portal to all federal, state and local government web resources and services.